Englewood, Louisiana
Current Conditions -  °F | °C
As of 5:53 AM on Saturday 20 Dec 2014 (Local Time) from KTVR Reporting Station
Haze Haze  
Wind Chill: 41°   Ceiling: 800
Heat Index: 45°   Visibility: 6mi
Dew Point: 42°   Wind: 7mph
Humidity: 90%   Direction: 30°NNE
Pressure: 30.2"   Gusts: NA
Location:  32.3599°N, 91.2529°W
Report Text: KTVR 201153Z AUTO 03006KT 6SM BR OVC008 07/06 A3020 RMK AO2 SLP232 60000 70040 T00720056 10078 20067 53004
Loading
Personal Weather Stations






























Interactive Weather Map New forecast layout! Learn more

10-Day Weather Forecast

Advertisements
Track Severe Weather on mobile